sensor_id;sensor_type;location;lat;lon;timestamp;P1;durP1;ratioP1;P2;durP2;ratioP2
2189;SDS011;1101;51.056;7.262;2023-07-13T00:01:05;0.50;;;0.20;;
2189;SDS011;1101;51.056;7.262;2023-07-13T00:03:33;0.50;;;0.20;;
2189;SDS011;1101;51.056;7.262;2023-07-13T00:06:01;0.50;;;0.30;;
2189;SDS011;1101;51.056;7.262;2023-07-13T00:08:31;0.50;;;0.20;;
2189;SDS011;1101;51.056;7.262;2023-07-13T00:11:00;0.50;;;0.20;;
2189;SDS011;1101;51.056;7.262;2023-07-13T00:13:28;0.50;;;0.20;;
2189;SDS011;1101;51.056;7.262;2023-07-13T00:15:57;0.50;;;0.30;;
2189;SDS011;1101;51.056;7.262;2023-07-13T00:18:27;0.50;;;0.20;;
2189;SDS011;1101;51.056;7.262;2023-07-13T00:20:56;0.50;;;0.30;;
2189;SDS011;1101;51.056;7.262;2023-07-13T00:23:32;0.50;;;0.30;;
2189;SDS011;1101;51.056;7.262;2023-07-13T00:26:00;0.50;;;0.20;;
2189;SDS011;1101;51.056;7.262;2023-07-13T00:28:29;0.50;;;0.20;;
2189;SDS011;1101;51.056;7.262;2023-07-13T00:30:56;0.40;;;0.20;;
2189;SDS011;1101;51.056;7.262;2023-07-13T00:33:24;0.47;;;0.20;;
2189;SDS011;1101;51.056;7.262;2023-07-13T00:35:53;0.50;;;0.20;;
2189;SDS011;1101;51.056;7.262;2023-07-13T00:38:22;0.50;;;0.20;;
2189;SDS011;1101;51.056;7.262;2023-07-13T00:40:52;0.50;;;0.30;;
2189;SDS011;1101;51.056;7.262;2023-07-13T00:43:21;0.40;;;0.20;;
2189;SDS011;1101;51.056;7.262;2023-07-13T00:48:51;0.50;;;0.30;;
2189;SDS011;1101;51.056;7.262;2023-07-13T00:51:21;0.50;;;0.23;;
2189;SDS011;1101;51.056;7.262;2023-07-13T00:53:56;0.50;;;0.20;;
2189;SDS011;1101;51.056;7.262;2023-07-13T00:56:28;0.40;;;0.20;;
2189;SDS011;1101;51.056;7.262;2023-07-13T00:58:56;0.40;;;0.20;;
2189;SDS011;1101;51.056;7.262;2023-07-13T01:01:26;0.40;;;0.20;;
2189;SDS011;1101;51.056;7.262;2023-07-13T01:03:54;0.40;;;0.20;;
2189;SDS011;1101;51.056;7.262;2023-07-13T01:06:23;0.40;;;0.20;;
2189;SDS011;1101;51.056;7.262;2023-07-13T01:08:51;0.43;;;0.20;;
2189;SDS011;1101;51.056;7.262;2023-07-13T01:11:48;0.40;;;0.20;;
2189;SDS011;1101;51.056;7.262;2023-07-13T01:14:16;0.40;;;0.20;;
2189;SDS011;1101;51.056;7.262;2023-07-13T01:16:44;0.40;;;0.20;;
2189;SDS011;1101;51.056;7.262;2023-07-13T01:19:17;0.40;;;0.20;;
2189;SDS011;1101;51.056;7.262;2023-07-13T01:22:04;0.40;;;0.20;;
2189;SDS011;1101;51.056;7.262;2023-07-13T01:24:34;0.50;;;0.20;;
2189;SDS011;1101;51.056;7.262;2023-07-13T01:27:03;0.40;;;0.20;;
2189;SDS011;1101;51.056;7.262;2023-07-13T01:29:33;0.40;;;0.27;;
2189;SDS011;1101;51.056;7.262;2023-07-13T01:32:09;0.50;;;0.30;;
2189;SDS011;1101;51.056;7.262;2023-07-13T01:34:38;0.40;;;0.20;;
2189;SDS011;1101;51.056;7.262;2023-07-13T01:37:10;0.40;;;0.30;;
2189;SDS011;1101;51.056;7.262;2023-07-13T01:39:39;0.40;;;0.20;;
2189;SDS011;1101;51.056;7.262;2023-07-13T01:42:07;0.40;;;0.30;;
2189;SDS011;1101;51.056;7.262;2023-07-13T01:44:35;0.40;;;0.20;;
2189;SDS011;1101;51.056;7.262;2023-07-13T01:47:03;0.40;;;0.20;;
2189;SDS011;1101;51.056;7.262;2023-07-13T01:49:31;0.40;;;0.20;;
2189;SDS011;1101;51.056;7.262;2023-07-13T01:51:59;0.40;;;0.20;;
2189;SDS011;1101;51.056;7.262;2023-07-13T01:54:28;0.50;;;0.30;;
2189;SDS011;1101;51.056;7.262;2023-07-13T01:56:56;0.40;;;0.20;;
2189;SDS011;1101;51.056;7.262;2023-07-13T01:59:24;0.40;;;0.30;;
2189;SDS011;1101;51.056;7.262;2023-07-13T02:01:51;0.40;;;0.20;;
2189;SDS011;1101;51.056;7.262;2023-07-13T02:04:19;0.40;;;0.20;;
2189;SDS011;1101;51.056;7.262;2023-07-13T02:06:47;0.40;;;0.20;;
2189;SDS011;1101;51.056;7.262;2023-07-13T02:09:15;0.40;;;0.20;;
2189;SDS011;1101;51.056;7.262;2023-07-13T02:11:44;0.40;;;0.20;;
2189;SDS011;1101;51.056;7.262;2023-07-13T02:14:12;0.40;;;0.20;;
2189;SDS011;1101;51.056;7.262;2023-07-13T02:16:41;0.40;;;0.20;;
2189;SDS011;1101;51.056;7.262;2023-07-13T02:19:09;0.40;;;0.20;;
2189;SDS011;1101;51.056;7.262;2023-07-13T02:21:37;0.40;;;0.30;;
2189;SDS011;1101;51.056;7.262;2023-07-13T02:24:05;0.40;;;0.30;;
2189;SDS011;1101;51.056;7.262;2023-07-13T02:26:33;0.40;;;0.20;;
2189;SDS011;1101;51.056;7.262;2023-07-13T02:29:03;0.50;;;0.30;;
2189;SDS011;1101;51.056;7.262;2023-07-13T02:31:31;0.40;;;0.20;;
2189;SDS011;1101;51.056;7.262;2023-07-13T02:33:59;0.47;;;0.30;;
2189;SDS011;1101;51.056;7.262;2023-07-13T02:36:27;0.40;;;0.20;;
2189;SDS011;1101;51.056;7.262;2023-07-13T02:38:54;0.40;;;0.20;;
2189;SDS011;1101;51.056;7.262;2023-07-13T02:41:22;0.40;;;0.20;;
2189;SDS011;1101;51.056;7.262;2023-07-13T02:43:50;0.40;;;0.20;;
2189;SDS011;1101;51.056;7.262;2023-07-13T02:46:19;0.40;;;0.20;;
2189;SDS011;1101;51.056;7.262;2023-07-13T02:48:47;0.40;;;0.23;;
2189;SDS011;1101;51.056;7.262;2023-07-13T02:51:15;0.40;;;0.20;;
2189;SDS011;1101;51.056;7.262;2023-07-13T02:53:43;0.40;;;0.20;;
2189;SDS011;1101;51.056;7.262;2023-07-13T02:56:11;0.40;;;0.30;;
2189;SDS011;1101;51.056;7.262;2023-07-13T02:58:42;0.40;;;0.30;;
2189;SDS011;1101;51.056;7.262;2023-07-13T03:01:10;0.40;;;0.20;;
2189;SDS011;1101;51.056;7.262;2023-07-13T03:03:46;0.40;;;0.30;;
2189;SDS011;1101;51.056;7.262;2023-07-13T03:06:15;0.40;;;0.20;;
2189;SDS011;1101;51.056;7.262;2023-07-13T03:08:44;0.40;;;0.20;;
2189;SDS011;1101;51.056;7.262;2023-07-13T03:11:13;0.40;;;0.30;;
2189;SDS011;1101;51.056;7.262;2023-07-13T03:13:43;0.40;;;0.20;;
2189;SDS011;1101;51.056;7.262;2023-07-13T03:16:11;0.40;;;0.20;;
2189;SDS011;1101;51.056;7.262;2023-07-13T03:18:45;0.40;;;0.30;;
2189;SDS011;1101;51.056;7.262;2023-07-13T03:21:15;0.43;;;0.30;;
2189;SDS011;1101;51.056;7.262;2023-07-13T03:23:43;0.40;;;0.20;;
2189;SDS011;1101;51.056;7.262;2023-07-13T03:26:12;0.40;;;0.30;;
2189;SDS011;1101;51.056;7.262;2023-07-13T03:28:41;0.40;;;0.30;;
2189;SDS011;1101;51.056;7.262;2023-07-13T03:31:11;0.40;;;0.20;;
2189;SDS011;1101;51.056;7.262;2023-07-13T03:33:41;0.40;;;0.20;;
2189;SDS011;1101;51.056;7.262;2023-07-13T03:36:12;0.40;;;0.20;;
2189;SDS011;1101;51.056;7.262;2023-07-13T03:38:42;0.40;;;0.20;;
2189;SDS011;1101;51.056;7.262;2023-07-13T03:41:10;0.40;;;0.30;;
2189;SDS011;1101;51.056;7.262;2023-07-13T03:43:38;0.40;;;0.20;;
2189;SDS011;1101;51.056;7.262;2023-07-13T03:46:05;0.40;;;0.20;;
2189;SDS011;1101;51.056;7.262;2023-07-13T03:48:33;0.40;;;0.30;;
2189;SDS011;1101;51.056;7.262;2023-07-13T03:51:01;0.40;;;0.30;;
2189;SDS011;1101;51.056;7.262;2023-07-13T03:53:31;0.40;;;0.20;;
2189;SDS011;1101;51.056;7.262;2023-07-13T03:55:58;0.40;;;0.30;;
2189;SDS011;1101;51.056;7.262;2023-07-13T03:58:28;0.40;;;0.20;;
2189;SDS011;1101;51.056;7.262;2023-07-13T04:00:58;0.40;;;0.20;;
2189;SDS011;1101;51.056;7.262;2023-07-13T04:03:27;0.40;;;0.20;;
2189;SDS011;1101;51.056;7.262;2023-07-13T04:05:55;0.40;;;0.30;;
2189;SDS011;1101;51.056;7.262;2023-07-13T04:08:26;0.40;;;0.30;;
2189;SDS011;1101;51.056;7.262;2023-07-13T04:10:56;0.40;;;0.23;;
2189;SDS011;1101;51.056;7.262;2023-07-13T04:13:24;0.40;;;0.20;;
2189;SDS011;1101;51.056;7.262;2023-07-13T04:15:53;0.40;;;0.20;;
2189;SDS011;1101;51.056;7.262;2023-07-13T04:18:21;0.40;;;0.20;;
2189;SDS011;1101;51.056;7.262;2023-07-13T04:20:49;0.40;;;0.20;;
2189;SDS011;1101;51.056;7.262;2023-07-13T04:23:18;0.40;;;0.20;;
2189;SDS011;1101;51.056;7.262;2023-07-13T04:25:46;0.40;;;0.20;;
2189;SDS011;1101;51.056;7.262;2023-07-13T04:28:17;0.40;;;0.30;;
2189;SDS011;1101;51.056;7.262;2023-07-13T04:30:44;0.40;;;0.20;;
2189;SDS011;1101;51.056;7.262;2023-07-13T04:33:12;0.40;;;0.30;;
2189;SDS011;1101;51.056;7.262;2023-07-13T04:35:40;0.40;;;0.20;;
2189;SDS011;1101;51.056;7.262;2023-07-13T04:38:08;0.40;;;0.30;;
2189;SDS011;1101;51.056;7.262;2023-07-13T04:40:37;0.40;;;0.30;;
2189;SDS011;1101;51.056;7.262;2023-07-13T04:43:05;0.40;;;0.20;;
2189;SDS011;1101;51.056;7.262;2023-07-13T04:45:34;0.40;;;0.30;;
2189;SDS011;1101;51.056;7.262;2023-07-13T04:48:02;0.40;;;0.30;;
2189;SDS011;1101;51.056;7.262;2023-07-13T04:50:31;0.40;;;0.20;;
2189;SDS011;1101;51.056;7.262;2023-07-13T04:52:59;0.40;;;0.20;;
2189;SDS011;1101;51.056;7.262;2023-07-13T04:55:26;0.40;;;0.20;;
2189;SDS011;1101;51.056;7.262;2023-07-13T04:57:57;0.40;;;0.20;;
2189;SDS011;1101;51.056;7.262;2023-07-13T05:00:26;0.40;;;0.30;;
2189;SDS011;1101;51.056;7.262;2023-07-13T05:02:55;0.40;;;0.20;;
2189;SDS011;1101;51.056;7.262;2023-07-13T05:05:25;0.40;;;0.20;;
2189;SDS011;1101;51.056;7.262;2023-07-13T05:07:53;0.40;;;0.30;;
2189;SDS011;1101;51.056;7.262;2023-07-13T05:10:22;0.40;;;0.23;;
2189;SDS011;1101;51.056;7.262;2023-07-13T05:12:50;0.40;;;0.30;;
2189;SDS011;1101;51.056;7.262;2023-07-13T05:15:20;0.40;;;0.30;;
2189;SDS011;1101;51.056;7.262;2023-07-13T05:17:49;0.40;;;0.30;;
2189;SDS011;1101;51.056;7.262;2023-07-13T05:20:18;0.43;;;0.30;;
2189;SDS011;1101;51.056;7.262;2023-07-13T05:22:47;0.40;;;0.30;;
2189;SDS011;1101;51.056;7.262;2023-07-13T05:25:15;0.40;;;0.30;;
2189;SDS011;1101;51.056;7.262;2023-07-13T05:27:43;0.50;;;0.30;;
2189;SDS011;1101;51.056;7.262;2023-07-13T05:30:13;0.40;;;0.20;;
2189;SDS011;1101;51.056;7.262;2023-07-13T05:32:41;0.40;;;0.27;;
2189;SDS011;1101;51.056;7.262;2023-07-13T05:35:09;0.40;;;0.20;;
2189;SDS011;1101;51.056;7.262;2023-07-13T05:37:38;0.47;;;0.30;;
2189;SDS011;1101;51.056;7.262;2023-07-13T05:40:06;0.40;;;0.30;;
2189;SDS011;1101;51.056;7.262;2023-07-13T05:42:35;0.40;;;0.20;;
2189;SDS011;1101;51.056;7.262;2023-07-13T05:45:03;0.40;;;0.20;;
2189;SDS011;1101;51.056;7.262;2023-07-13T05:47:31;0.40;;;0.30;;
2189;SDS011;1101;51.056;7.262;2023-07-13T05:49:59;0.40;;;0.20;;
2189;SDS011;1101;51.056;7.262;2023-07-13T05:52:30;0.40;;;0.20;;
2189;SDS011;1101;51.056;7.262;2023-07-13T05:54:59;0.40;;;0.20;;
2189;SDS011;1101;51.056;7.262;2023-07-13T05:57:27;0.40;;;0.20;;
2189;SDS011;1101;51.056;7.262;2023-07-13T05:59:55;0.40;;;0.30;;
2189;SDS011;1101;51.056;7.262;2023-07-13T06:02:23;0.40;;;0.20;;
2189;SDS011;1101;51.056;7.262;2023-07-13T06:04:51;0.40;;;0.20;;
2189;SDS011;1101;51.056;7.262;2023-07-13T06:07:19;0.40;;;0.20;;
2189;SDS011;1101;51.056;7.262;2023-07-13T06:09:47;0.40;;;0.30;;
2189;SDS011;1101;51.056;7.262;2023-07-13T06:12:16;0.40;;;0.20;;
2189;SDS011;1101;51.056;7.262;2023-07-13T06:14:44;0.40;;;0.20;;
2189;SDS011;1101;51.056;7.262;2023-07-13T06:17:12;0.50;;;0.30;;
2189;SDS011;1101;51.056;7.262;2023-07-13T06:19:40;0.40;;;0.20;;
2189;SDS011;1101;51.056;7.262;2023-07-13T06:22:07;0.40;;;0.20;;
2189;SDS011;1101;51.056;7.262;2023-07-13T06:24:35;0.40;;;0.30;;
2189;SDS011;1101;51.056;7.262;2023-07-13T06:27:03;0.40;;;0.20;;
2189;SDS011;1101;51.056;7.262;2023-07-13T06:29:33;0.50;;;0.30;;
2189;SDS011;1101;51.056;7.262;2023-07-13T06:32:01;0.40;;;0.20;;
2189;SDS011;1101;51.056;7.262;2023-07-13T06:34:28;0.43;;;0.30;;
2189;SDS011;1101;51.056;7.262;2023-07-13T06:36:57;0.40;;;0.23;;
2189;SDS011;1101;51.056;7.262;2023-07-13T06:39:25;0.40;;;0.20;;
2189;SDS011;1101;51.056;7.262;2023-07-13T06:41:53;0.40;;;0.30;;
2189;SDS011;1101;51.056;7.262;2023-07-13T06:44:21;0.40;;;0.23;;
2189;SDS011;1101;51.056;7.262;2023-07-13T06:46:50;0.40;;;0.20;;
2189;SDS011;1101;51.056;7.262;2023-07-13T06:49:18;0.40;;;0.27;;
2189;SDS011;1101;51.056;7.262;2023-07-13T06:51:46;0.50;;;0.30;;
2189;SDS011;1101;51.056;7.262;2023-07-13T06:54:13;0.40;;;0.30;;
2189;SDS011;1101;51.056;7.262;2023-07-13T06:56:41;0.40;;;0.33;;
2189;SDS011;1101;51.056;7.262;2023-07-13T06:59:09;0.40;;;0.30;;
2189;SDS011;1101;51.056;7.262;2023-07-13T07:01:37;0.40;;;0.20;;
2189;SDS011;1101;51.056;7.262;2023-07-13T07:04:08;0.40;;;0.20;;
2189;SDS011;1101;51.056;7.262;2023-07-13T07:06:36;0.40;;;0.20;;
2189;SDS011;1101;51.056;7.262;2023-07-13T07:09:04;0.40;;;0.30;;
2189;SDS011;1101;51.056;7.262;2023-07-13T07:11:32;0.50;;;0.30;;
2189;SDS011;1101;51.056;7.262;2023-07-13T07:14:00;0.43;;;0.30;;
2189;SDS011;1101;51.056;7.262;2023-07-13T07:16:28;0.40;;;0.20;;
2189;SDS011;1101;51.056;7.262;2023-07-13T07:18:57;0.40;;;0.20;;
2189;SDS011;1101;51.056;7.262;2023-07-13T07:21:26;0.40;;;0.20;;
2189;SDS011;1101;51.056;7.262;2023-07-13T07:23:54;0.50;;;0.20;;
2189;SDS011;1101;51.056;7.262;2023-07-13T07:26:22;0.47;;;0.30;;
2189;SDS011;1101;51.056;7.262;2023-07-13T07:28:53;0.40;;;0.20;;
2189;SDS011;1101;51.056;7.262;2023-07-13T07:31:41;0.40;;;0.20;;
2189;SDS011;1101;51.056;7.262;2023-07-13T07:34:11;0.50;;;0.20;;
2189;SDS011;1101;51.056;7.262;2023-07-13T07:36:40;0.40;;;0.20;;
2189;SDS011;1101;51.056;7.262;2023-07-13T07:39:11;0.50;;;0.30;;
2189;SDS011;1101;51.056;7.262;2023-07-13T07:41:40;0.50;;;0.20;;
2189;SDS011;1101;51.056;7.262;2023-07-13T07:44:22;0.50;;;0.20;;
2189;SDS011;1101;51.056;7.262;2023-07-13T07:46:50;0.50;;;0.20;;
2189;SDS011;1101;51.056;7.262;2023-07-13T07:49:18;0.50;;;0.20;;
2189;SDS011;1101;51.056;7.262;2023-07-13T07:51:47;0.50;;;0.20;;
2189;SDS011;1101;51.056;7.262;2023-07-13T07:54:15;0.50;;;0.20;;
2189;SDS011;1101;51.056;7.262;2023-07-13T07:56:55;0.50;;;0.20;;
2189;SDS011;1101;51.056;7.262;2023-07-13T07:59:25;0.50;;;0.23;;
2189;SDS011;1101;51.056;7.262;2023-07-13T08:01:56;0.50;;;0.20;;
2189;SDS011;1101;51.056;7.262;2023-07-13T08:04:27;0.50;;;0.20;;
2189;SDS011;1101;51.056;7.262;2023-07-13T08:06:59;0.50;;;0.20;;
2189;SDS011;1101;51.056;7.262;2023-07-13T08:09:29;0.50;;;0.20;;
2189;SDS011;1101;51.056;7.262;2023-07-13T08:11:56;0.50;;;0.20;;
2189;SDS011;1101;51.056;7.262;2023-07-13T08:14:27;0.50;;;0.20;;
2189;SDS011;1101;51.056;7.262;2023-07-13T08:17:08;0.50;;;0.20;;
2189;SDS011;1101;51.056;7.262;2023-07-13T08:19:36;0.50;;;0.20;;
2189;SDS011;1101;51.056;7.262;2023-07-13T08:22:07;0.50;;;0.20;;
2189;SDS011;1101;51.056;7.262;2023-07-13T08:24:35;0.50;;;0.20;;
2189;SDS011;1101;51.056;7.262;2023-07-13T08:27:03;0.50;;;0.20;;
2189;SDS011;1101;51.056;7.262;2023-07-13T08:29:31;0.50;;;0.20;;
2189;SDS011;1101;51.056;7.262;2023-07-13T08:31:59;0.50;;;0.20;;
2189;SDS011;1101;51.056;7.262;2023-07-13T08:34:27;0.50;;;0.20;;
2189;SDS011;1101;51.056;7.262;2023-07-13T08:36:54;0.50;;;0.20;;
2189;SDS011;1101;51.056;7.262;2023-07-13T08:39:24;0.50;;;0.20;;
2189;SDS011;1101;51.056;7.262;2023-07-13T08:41:55;0.50;;;0.20;;
2189;SDS011;1101;51.056;7.262;2023-07-13T08:44:30;0.50;;;0.30;;
2189;SDS011;1101;51.056;7.262;2023-07-13T08:47:07;0.50;;;0.30;;
2189;SDS011;1101;51.056;7.262;2023-07-13T08:49:37;0.50;;;0.30;;
2189;SDS011;1101;51.056;7.262;2023-07-13T08:52:06;0.50;;;0.30;;
2189;SDS011;1101;51.056;7.262;2023-07-13T08:54:41;0.50;;;0.20;;
2189;SDS011;1101;51.056;7.262;2023-07-13T08:57:13;0.50;;;0.30;;
2189;SDS011;1101;51.056;7.262;2023-07-13T08:59:43;0.50;;;0.30;;
2189;SDS011;1101;51.056;7.262;2023-07-13T09:02:17;0.50;;;0.20;;
2189;SDS011;1101;51.056;7.262;2023-07-13T09:04:53;0.50;;;0.20;;
2189;SDS011;1101;51.056;7.262;2023-07-13T09:07:29;0.50;;;0.20;;
2189;SDS011;1101;51.056;7.262;2023-07-13T09:10:12;0.50;;;0.43;;
2189;SDS011;1101;51.056;7.262;2023-07-13T09:12:45;0.50;;;0.20;;
2189;SDS011;1101;51.056;7.262;2023-07-13T09:15:25;0.50;;;0.20;;
2189;SDS011;1101;51.056;7.262;2023-07-13T09:17:58;0.50;;;0.20;;
2189;SDS011;1101;51.056;7.262;2023-07-13T09:20:31;0.50;;;0.30;;
2189;SDS011;1101;51.056;7.262;2023-07-13T09:23:03;0.50;;;0.30;;
2189;SDS011;1101;51.056;7.262;2023-07-13T09:25:36;0.50;;;0.20;;
2189;SDS011;1101;51.056;7.262;2023-07-13T09:28:09;0.50;;;0.30;;
2189;SDS011;1101;51.056;7.262;2023-07-13T09:30:43;0.50;;;0.20;;
2189;SDS011;1101;51.056;7.262;2023-07-13T09:33:19;0.50;;;0.20;;
2189;SDS011;1101;51.056;7.262;2023-07-13T09:35:48;0.50;;;0.20;;
2189;SDS011;1101;51.056;7.262;2023-07-13T09:38:17;0.50;;;0.30;;
2189;SDS011;1101;51.056;7.262;2023-07-13T09:40:52;0.50;;;0.30;;
2189;SDS011;1101;51.056;7.262;2023-07-13T09:43:28;0.50;;;0.20;;
2189;SDS011;1101;51.056;7.262;2023-07-13T09:45:56;0.50;;;0.20;;
2189;SDS011;1101;51.056;7.262;2023-07-13T09:48:23;0.50;;;0.20;;
2189;SDS011;1101;51.056;7.262;2023-07-13T09:50:54;0.50;;;0.30;;
2189;SDS011;1101;51.056;7.262;2023-07-13T09:53:23;0.50;;;0.30;;
2189;SDS011;1101;51.056;7.262;2023-07-13T09:55:52;0.50;;;0.20;;
2189;SDS011;1101;51.056;7.262;2023-07-13T09:58:21;0.50;;;0.20;;
2189;SDS011;1101;51.056;7.262;2023-07-13T10:00:55;0.50;;;0.30;;
2189;SDS011;1101;51.056;7.262;2023-07-13T10:03:26;0.50;;;0.20;;
2189;SDS011;1101;51.056;7.262;2023-07-13T10:06:00;0.50;;;0.20;;
2189;SDS011;1101;51.056;7.262;2023-07-13T10:08:32;0.50;;;0.20;;
2189;SDS011;1101;51.056;7.262;2023-07-13T10:11:10;0.50;;;0.20;;
2189;SDS011;1101;51.056;7.262;2023-07-13T10:13:40;0.50;;;0.30;;
2189;SDS011;1101;51.056;7.262;2023-07-13T10:16:11;0.50;;;0.20;;
2189;SDS011;1101;51.056;7.262;2023-07-13T10:18:40;0.50;;;0.23;;
2189;SDS011;1101;51.056;7.262;2023-07-13T10:21:13;0.50;;;0.20;;
2189;SDS011;1101;51.056;7.262;2023-07-13T10:23:47;0.50;;;0.20;;
2189;SDS011;1101;51.056;7.262;2023-07-13T10:26:21;0.50;;;0.20;;
2189;SDS011;1101;51.056;7.262;2023-07-13T10:28:52;0.50;;;0.30;;
2189;SDS011;1101;51.056;7.262;2023-07-13T10:31:24;0.50;;;0.20;;
2189;SDS011;1101;51.056;7.262;2023-07-13T10:33:52;0.50;;;0.30;;
2189;SDS011;1101;51.056;7.262;2023-07-13T10:36:23;0.50;;;0.20;;
2189;SDS011;1101;51.056;7.262;2023-07-13T10:38:59;0.50;;;0.30;;
2189;SDS011;1101;51.056;7.262;2023-07-13T10:41:32;0.50;;;0.30;;
2189;SDS011;1101;51.056;7.262;2023-07-13T10:44:04;0.50;;;0.20;;
2189;SDS011;1101;51.056;7.262;2023-07-13T10:46:40;0.50;;;0.27;;
2189;SDS011;1101;51.056;7.262;2023-07-13T10:49:11;0.50;;;0.20;;
2189;SDS011;1101;51.056;7.262;2023-07-13T10:51:39;0.50;;;0.20;;
2189;SDS011;1101;51.056;7.262;2023-07-13T10:54:11;0.50;;;0.20;;
2189;SDS011;1101;51.056;7.262;2023-07-13T10:56:48;0.50;;;0.30;;
2189;SDS011;1101;51.056;7.262;2023-07-13T10:59:19;0.50;;;0.20;;
2189;SDS011;1101;51.056;7.262;2023-07-13T11:01:55;0.50;;;0.30;;
2189;SDS011;1101;51.056;7.262;2023-07-13T11:04:25;0.50;;;0.20;;
2189;SDS011;1101;51.056;7.262;2023-07-13T11:06:57;0.50;;;0.20;;
2189;SDS011;1101;51.056;7.262;2023-07-13T11:09:31;0.50;;;0.30;;
2189;SDS011;1101;51.056;7.262;2023-07-13T11:12:07;0.50;;;0.20;;
2189;SDS011;1101;51.056;7.262;2023-07-13T11:15:04;0.50;;;0.30;;
2189;SDS011;1101;51.056;7.262;2023-07-13T11:17:37;0.50;;;0.20;;
2189;SDS011;1101;51.056;7.262;2023-07-13T11:20:20;0.50;;;0.20;;
2189;SDS011;1101;51.056;7.262;2023-07-13T11:23:07;0.50;;;0.20;;
2189;SDS011;1101;51.056;7.262;2023-07-13T11:25:48;0.50;;;0.30;;
2189;SDS011;1101;51.056;7.262;2023-07-13T11:28:18;0.50;;;0.20;;
2189;SDS011;1101;51.056;7.262;2023-07-13T11:30:59;0.50;;;0.23;;
2189;SDS011;1101;51.056;7.262;2023-07-13T11:33:57;0.50;;;0.30;;
2189;SDS011;1101;51.056;7.262;2023-07-13T11:36:30;0.50;;;0.23;;
2189;SDS011;1101;51.056;7.262;2023-07-13T11:39:04;0.50;;;0.20;;
2189;SDS011;1101;51.056;7.262;2023-07-13T11:41:43;0.50;;;0.30;;
2189;SDS011;1101;51.056;7.262;2023-07-13T11:44:17;0.50;;;0.30;;
2189;SDS011;1101;51.056;7.262;2023-07-13T11:46:47;0.50;;;0.20;;
2189;SDS011;1101;51.056;7.262;2023-07-13T11:49:21;0.50;;;0.23;;
2189;SDS011;1101;51.056;7.262;2023-07-13T11:51:50;0.50;;;0.20;;
2189;SDS011;1101;51.056;7.262;2023-07-13T11:54:24;0.50;;;0.30;;
2189;SDS011;1101;51.056;7.262;2023-07-13T11:56:55;0.50;;;0.20;;
2189;SDS011;1101;51.056;7.262;2023-07-13T11:59:28;0.50;;;0.20;;
2189;SDS011;1101;51.056;7.262;2023-07-13T12:01:57;0.50;;;0.20;;
2189;SDS011;1101;51.056;7.262;2023-07-13T12:04:26;0.70;;;0.30;;
2189;SDS011;1101;51.056;7.262;2023-07-13T12:06:58;0.50;;;0.20;;
2189;SDS011;1101;51.056;7.262;2023-07-13T12:09:31;0.50;;;0.20;;
2189;SDS011;1101;51.056;7.262;2023-07-13T12:12:02;0.50;;;0.20;;
2189;SDS011;1101;51.056;7.262;2023-07-13T12:14:34;0.50;;;0.30;;
2189;SDS011;1101;51.056;7.262;2023-07-13T12:17:04;0.50;;;0.20;;
2189;SDS011;1101;51.056;7.262;2023-07-13T12:19:38;0.50;;;0.20;;
2189;SDS011;1101;51.056;7.262;2023-07-13T12:22:08;0.50;;;0.20;;
2189;SDS011;1101;51.056;7.262;2023-07-13T12:24:39;0.50;;;0.33;;
2189;SDS011;1101;51.056;7.262;2023-07-13T12:27:16;0.50;;;0.20;;
2189;SDS011;1101;51.056;7.262;2023-07-13T12:29:51;0.77;;;0.37;;
2189;SDS011;1101;51.056;7.262;2023-07-13T12:32:21;0.50;;;0.20;;
2189;SDS011;1101;51.056;7.262;2023-07-13T12:34:52;0.50;;;0.20;;
2189;SDS011;1101;51.056;7.262;2023-07-13T12:37:23;0.60;;;0.30;;
2189;SDS011;1101;51.056;7.262;2023-07-13T12:39:51;0.50;;;0.20;;
2189;SDS011;1101;51.056;7.262;2023-07-13T12:42:20;0.50;;;0.30;;
2189;SDS011;1101;51.056;7.262;2023-07-13T12:44:56;0.50;;;0.30;;
2189;SDS011;1101;51.056;7.262;2023-07-13T12:47:26;0.50;;;0.20;;
2189;SDS011;1101;51.056;7.262;2023-07-13T12:49:56;0.50;;;0.20;;
2189;SDS011;1101;51.056;7.262;2023-07-13T12:52:28;0.50;;;0.20;;
2189;SDS011;1101;51.056;7.262;2023-07-13T12:55:02;0.50;;;0.20;;
2189;SDS011;1101;51.056;7.262;2023-07-13T12:57:37;0.50;;;0.20;;
2189;SDS011;1101;51.056;7.262;2023-07-13T13:00:18;0.50;;;0.30;;
2189;SDS011;1101;51.056;7.262;2023-07-13T13:02:52;0.60;;;0.40;;
2189;SDS011;1101;51.056;7.262;2023-07-13T13:05:41;0.50;;;0.20;;
2189;SDS011;1101;51.056;7.262;2023-07-13T13:08:09;0.50;;;0.20;;
2189;SDS011;1101;51.056;7.262;2023-07-13T13:10:39;0.50;;;0.20;;
2189;SDS011;1101;51.056;7.262;2023-07-13T13:13:07;0.50;;;0.20;;
2189;SDS011;1101;51.056;7.262;2023-07-13T13:15:37;0.50;;;0.20;;
2189;SDS011;1101;51.056;7.262;2023-07-13T13:18:08;0.50;;;0.20;;
2189;SDS011;1101;51.056;7.262;2023-07-13T13:20:44;0.50;;;0.30;;
2189;SDS011;1101;51.056;7.262;2023-07-13T13:23:13;0.50;;;0.20;;
2189;SDS011;1101;51.056;7.262;2023-07-13T13:25:43;0.50;;;0.20;;
2189;SDS011;1101;51.056;7.262;2023-07-13T13:28:13;0.50;;;0.20;;
2189;SDS011;1101;51.056;7.262;2023-07-13T13:30:44;0.50;;;0.20;;
2189;SDS011;1101;51.056;7.262;2023-07-13T13:33:15;0.50;;;0.20;;
2189;SDS011;1101;51.056;7.262;2023-07-13T13:35:44;0.50;;;0.20;;
2189;SDS011;1101;51.056;7.262;2023-07-13T13:38:13;0.50;;;0.20;;
2189;SDS011;1101;51.056;7.262;2023-07-13T13:40:42;0.50;;;0.40;;
2189;SDS011;1101;51.056;7.262;2023-07-13T13:43:13;0.50;;;0.20;;
2189;SDS011;1101;51.056;7.262;2023-07-13T13:45:42;0.80;;;0.73;;
2189;SDS011;1101;51.056;7.262;2023-07-13T13:48:14;0.50;;;0.20;;
2189;SDS011;1101;51.056;7.262;2023-07-13T13:50:44;0.50;;;0.20;;
2189;SDS011;1101;51.056;7.262;2023-07-13T13:53:12;0.50;;;0.30;;
2189;SDS011;1101;51.056;7.262;2023-07-13T13:55:40;0.50;;;0.30;;
2189;SDS011;1101;51.056;7.262;2023-07-13T13:58:08;0.50;;;0.20;;
2189;SDS011;1101;51.056;7.262;2023-07-13T14:00:37;0.50;;;0.20;;
2189;SDS011;1101;51.056;7.262;2023-07-13T14:03:09;0.50;;;0.20;;
2189;SDS011;1101;51.056;7.262;2023-07-13T14:05:42;0.50;;;0.20;;
2189;SDS011;1101;51.056;7.262;2023-07-13T14:08:12;0.50;;;0.20;;
2189;SDS011;1101;51.056;7.262;2023-07-13T14:10:41;0.50;;;0.30;;
2189;SDS011;1101;51.056;7.262;2023-07-13T14:13:14;0.50;;;0.20;;
2189;SDS011;1101;51.056;7.262;2023-07-13T14:15:45;0.50;;;0.30;;
2189;SDS011;1101;51.056;7.262;2023-07-13T14:18:15;0.50;;;0.20;;
2189;SDS011;1101;51.056;7.262;2023-07-13T14:20:45;0.50;;;0.20;;
2189;SDS011;1101;51.056;7.262;2023-07-13T14:23:13;0.50;;;0.20;;
2189;SDS011;1101;51.056;7.262;2023-07-13T14:25:42;0.50;;;0.20;;
2189;SDS011;1101;51.056;7.262;2023-07-13T14:28:15;0.50;;;0.20;;
2189;SDS011;1101;51.056;7.262;2023-07-13T14:30:47;0.50;;;0.30;;
2189;SDS011;1101;51.056;7.262;2023-07-13T14:33:17;0.50;;;0.20;;
2189;SDS011;1101;51.056;7.262;2023-07-13T14:35:45;0.50;;;0.20;;
2189;SDS011;1101;51.056;7.262;2023-07-13T14:38:16;0.50;;;0.40;;
2189;SDS011;1101;51.056;7.262;2023-07-13T14:40:46;0.50;;;0.20;;
2189;SDS011;1101;51.056;7.262;2023-07-13T14:43:14;0.50;;;0.30;;
2189;SDS011;1101;51.056;7.262;2023-07-13T14:45:44;0.50;;;0.40;;
2189;SDS011;1101;51.056;7.262;2023-07-13T14:48:18;0.77;;;0.30;;
2189;SDS011;1101;51.056;7.262;2023-07-13T14:50:49;0.50;;;0.30;;
2189;SDS011;1101;51.056;7.262;2023-07-13T14:53:20;0.50;;;0.20;;
2189;SDS011;1101;51.056;7.262;2023-07-13T14:55:48;0.50;;;0.20;;
2189;SDS011;1101;51.056;7.262;2023-07-13T14:58:17;0.50;;;0.20;;
2189;SDS011;1101;51.056;7.262;2023-07-13T15:00:45;0.50;;;0.20;;
2189;SDS011;1101;51.056;7.262;2023-07-13T15:03:16;0.50;;;0.20;;
2189;SDS011;1101;51.056;7.262;2023-07-13T15:05:48;0.50;;;0.20;;
2189;SDS011;1101;51.056;7.262;2023-07-13T15:08:17;0.50;;;0.20;;
2189;SDS011;1101;51.056;7.262;2023-07-13T15:10:44;0.50;;;0.20;;
2189;SDS011;1101;51.056;7.262;2023-07-13T15:13:13;0.50;;;0.20;;
2189;SDS011;1101;51.056;7.262;2023-07-13T15:15:43;0.50;;;0.20;;
2189;SDS011;1101;51.056;7.262;2023-07-13T15:18:13;0.50;;;0.20;;
2189;SDS011;1101;51.056;7.262;2023-07-13T15:20:44;0.50;;;0.30;;
2189;SDS011;1101;51.056;7.262;2023-07-13T15:23:13;0.50;;;0.20;;
2189;SDS011;1101;51.056;7.262;2023-07-13T15:25:43;0.50;;;0.20;;
2189;SDS011;1101;51.056;7.262;2023-07-13T15:28:12;0.50;;;0.30;;
2189;SDS011;1101;51.056;7.262;2023-07-13T15:30:40;0.50;;;0.20;;
2189;SDS011;1101;51.056;7.262;2023-07-13T15:33:11;0.50;;;0.30;;
2189;SDS011;1101;51.056;7.262;2023-07-13T15:35:44;0.50;;;0.20;;
2189;SDS011;1101;51.056;7.262;2023-07-13T15:38:15;0.50;;;0.20;;